createdAt,value
2023-04-22T00:00:32.467Z,7.59
2023-04-22T00:03:35.735Z,7.47
2023-04-22T00:06:38.542Z,7.49
2023-04-22T00:09:41.835Z,7.42
2023-04-22T00:12:44.363Z,7.37
2023-04-22T00:15:47.171Z,7.31
2023-04-22T00:18:49.805Z,7.23
2023-04-22T00:21:52.994Z,7.19
2023-04-22T00:24:55.437Z,7.16
2023-04-22T00:27:58.251Z,7.14
2023-04-22T00:31:03.311Z,7.08
2023-04-22T00:34:06.264Z,7.03
2023-04-22T00:37:08.716Z,6.95
2023-04-22T00:40:11.867Z,6.88
2023-04-22T00:43:16.366Z,6.89
2023-04-22T00:46:19.928Z,6.84
2023-04-22T00:49:22.793Z,6.76
2023-04-22T00:52:25.595Z,6.57
2023-04-22T00:55:28.306Z,6.36
2023-04-22T00:58:31.410Z,6.35
2023-04-22T01:01:34.725Z,6.45
2023-04-22T01:04:38.408Z,6.58
2023-04-22T01:07:40.969Z,6.68
2023-04-22T01:10:44.116Z,6.64
2023-04-22T01:13:46.709Z,6.59
2023-04-22T01:16:50.450Z,6.54
2023-04-22T01:19:53.376Z,6.54
2023-04-22T01:22:57.615Z,6.49
2023-04-22T01:26:00.140Z,6.43
2023-04-22T01:29:04.001Z,6.45
2023-04-22T01:32:07.036Z,6.45
2023-04-22T01:35:10.577Z,6.43
2023-04-22T01:38:13.538Z,6.49
2023-04-22T01:41:16.842Z,6.55
2023-04-22T01:44:19.878Z,6.61
2023-04-22T01:47:22.775Z,6.60
2023-04-22T01:50:25.459Z,6.67
2023-04-22T01:53:28.349Z,6.71
2023-04-22T01:56:30.809Z,6.75
2023-04-22T01:59:33.641Z,6.81
2023-04-22T02:02:36.469Z,6.91
2023-04-22T02:05:39.766Z,6.92
2023-04-22T02:08:42.312Z,7.04
2023-04-22T02:11:45.151Z,7.13
2023-04-22T02:14:48.054Z,7.14
2023-04-22T02:17:50.944Z,7.18
2023-04-22T02:20:53.513Z,7.17
2023-04-22T02:23:56.293Z,7.11
2023-04-22T02:26:58.786Z,7.10
2023-04-22T02:30:01.688Z,7.13
2023-04-22T02:33:04.427Z,7.14
2023-04-22T02:36:07.585Z,7.08
2023-04-22T02:39:10.524Z,7.04
2023-04-22T02:42:13.882Z,7.03
2023-04-22T02:45:16.474Z,6.98
2023-04-22T02:48:19.536Z,6.99
2023-04-22T02:51:22.697Z,6.95
2023-04-22T02:54:25.624Z,7.02
2023-04-22T02:57:28.114Z,7.01
2023-04-22T03:00:30.970Z,6.98
2023-04-22T03:03:33.707Z,6.90
2023-04-22T03:06:36.686Z,6.87
2023-04-22T03:09:39.680Z,6.85
2023-04-22T03:12:42.703Z,6.89
2023-04-22T03:15:45.278Z,6.91
2023-04-22T03:18:48.358Z,6.90
2023-04-22T03:21:50.981Z,6.92
2023-04-22T03:24:53.921Z,6.89
2023-04-22T03:27:56.900Z,6.84
2023-04-22T03:31:00.676Z,6.84
2023-04-22T03:34:03.935Z,6.76
2023-04-22T03:37:07.135Z,6.74
2023-04-22T03:40:10.352Z,6.69
2023-04-22T03:43:13.592Z,6.70
2023-04-22T03:46:16.251Z,6.66
2023-04-22T03:49:20.209Z,6.68
2023-04-22T03:52:23.532Z,6.62
2023-04-22T03:55:27.394Z,6.62
2023-04-22T03:58:31.566Z,6.62
2023-04-22T04:01:36.227Z,6.60
2023-04-22T04:04:39.701Z,6.60
2023-04-22T04:07:42.913Z,6.62
2023-04-22T04:10:46.035Z,6.70
2023-04-22T04:13:48.864Z,6.76
2023-04-22T04:16:51.944Z,6.75
2023-04-22T04:19:55.488Z,6.77
2023-04-22T04:22:58.631Z,6.80
2023-04-22T04:26:02.879Z,6.87
2023-04-22T04:29:06.368Z,6.87
2023-04-22T04:32:10.143Z,6.82
2023-04-22T04:35:14.484Z,6.88
2023-04-22T04:38:17.447Z,6.90
2023-04-22T04:41:21.161Z,7.02
2023-04-22T04:44:26.446Z,7.04
2023-04-22T04:47:30.132Z,7.17
2023-04-22T04:50:36.286Z,7.28
2023-04-22T04:53:40.620Z,7.36
2023-04-22T04:56:43.500Z,7.44
2023-04-22T04:59:46.777Z,7.55
2023-04-22T05:02:50.188Z,7.65
2023-04-22T05:05:53.318Z,7.67
2023-04-22T05:08:56.202Z,7.94
2023-04-22T05:11:59.196Z,8.10
2023-04-22T05:15:01.878Z,8.22
2023-04-22T05:18:06.443Z,8.40
2023-04-22T05:21:09.451Z,8.60
2023-04-22T05:24:12.537Z,8.82
2023-04-22T05:27:15.288Z,8.86
2023-04-22T05:30:18.356Z,9.05
2023-04-22T05:33:21.087Z,9.28
2023-04-22T05:36:25.058Z,9.89
2023-04-22T05:39:27.761Z,10.32
2023-04-22T05:42:31.151Z,10.27
2023-04-22T05:45:33.954Z,10.26
2023-04-22T05:48:37.878Z,10.44
2023-04-22T05:51:42.711Z,10.45
2023-04-22T05:54:47.404Z,10.42
2023-04-22T05:57:51.402Z,10.91
2023-04-22T06:00:54.812Z,11.21
2023-04-22T06:03:58.576Z,11.17
2023-04-22T06:07:01.487Z,11.12
2023-04-22T06:10:05.566Z,11.21
2023-04-22T06:13:09.450Z,11.31
2023-04-22T06:16:12.337Z,11.40
2023-04-22T06:19:15.009Z,11.40
2023-04-22T06:22:17.881Z,11.48
2023-04-22T06:25:20.759Z,11.61
2023-04-22T06:28:24.481Z,11.65
2023-04-22T06:31:28.947Z,11.75
2023-04-22T06:34:31.885Z,11.89
2023-04-22T06:37:34.356Z,11.95
2023-04-22T06:40:38.054Z,12.21
2023-04-22T06:43:41.099Z,12.25
2023-04-22T06:46:49.422Z,12.50
2023-04-22T06:49:55.177Z,12.69
2023-04-22T06:52:58.728Z,12.97
2023-04-22T06:56:01.323Z,12.92
2023-04-22T06:59:04.350Z,13.36
2023-04-22T07:02:07.630Z,13.78
2023-04-22T07:05:11.258Z,14.18
2023-04-22T07:08:14.673Z,14.41
2023-04-22T07:11:17.605Z,14.58
2023-04-22T07:14:20.932Z,14.73
2023-04-22T07:17:23.745Z,15.56
2023-04-22T07:20:26.404Z,16.53
2023-04-22T07:23:29.264Z,17.24
2023-04-22T07:26:34.383Z,18.61
2023-04-22T07:29:37.514Z,19.57
2023-04-22T07:32:40.421Z,20.10
2023-04-22T07:35:43.350Z,19.82
2023-04-22T07:38:46.032Z,20.63
2023-04-22T07:41:48.952Z,21.86
2023-04-22T07:44:51.612Z,20.72
2023-04-22T07:47:54.524Z,21.33
2023-04-22T07:50:57.043Z,22.24
2023-04-22T07:53:59.924Z,22.46
2023-04-22T07:57:02.391Z,22.36
2023-04-22T08:00:07.654Z,22.94
2023-04-22T08:03:14.675Z,23.45
2023-04-22T08:06:17.633Z,23.23
2023-04-22T08:09:20.056Z,21.82
2023-04-22T08:12:23.513Z,23.30
2023-04-22T08:15:26.023Z,23.97
2023-04-22T08:18:29.435Z,24.70
2023-04-22T08:21:33.084Z,23.58
2023-04-22T08:24:36.139Z,26.36
2023-04-22T08:27:38.725Z,25.62
2023-04-22T08:30:41.896Z,26.47
2023-04-22T08:33:44.465Z,25.40
2023-04-22T08:36:47.298Z,24.51
2023-04-22T08:39:49.716Z,26.16
2023-04-22T08:42:52.772Z,25.32
2023-04-22T08:45:55.866Z,26.09
2023-04-22T08:49:03.932Z,26.99
2023-04-22T08:52:06.558Z,27.80
2023-04-22T08:55:09.573Z,25.00
2023-04-22T08:58:12.963Z,28.40
2023-04-22T09:01:18.001Z,26.89
2023-04-22T09:04:20.727Z,25.96
2023-04-22T09:07:33.215Z,27.22
2023-04-22T09:10:38.112Z,25.04
2023-04-22T09:13:42.545Z,27.91
2023-04-22T09:16:48.977Z,29.23
2023-04-22T09:20:01.989Z,28.02
2023-04-22T09:23:07.409Z,25.02
2023-04-22T09:26:10.493Z,29.89
2023-04-22T09:29:16.840Z,29.64
2023-04-22T09:32:19.817Z,24.58
2023-04-22T09:35:41.832Z,28.67
2023-04-22T09:38:55.559Z,29.74
2023-04-22T09:41:58.199Z,29.21
2023-04-22T09:45:02.205Z,29.13
2023-04-22T09:48:16.164Z,30.86
2023-04-22T09:51:19.439Z,31.46
2023-04-22T09:54:23.673Z,30.48
2023-04-22T09:57:27.791Z,32.14
2023-04-22T10:00:31.183Z,29.44
2023-04-22T10:03:34.125Z,29.15
2023-04-22T10:06:37.344Z,30.49
2023-04-22T10:09:40.531Z,30.23
2023-04-22T10:12:43.416Z,31.21
2023-04-22T10:15:50.986Z,29.78
2023-04-22T10:18:54.728Z,30.70
2023-04-22T10:22:00.668Z,27.88
2023-04-22T10:25:03.360Z,30.11
2023-04-22T10:28:08.816Z,28.39
2023-04-22T10:31:21.975Z,30.76
2023-04-22T10:34:25.557Z,29.85
2023-04-22T10:37:28.014Z,31.27
2023-04-22T10:40:31.097Z,31.66
2023-04-22T10:43:48.161Z,30.69
2023-04-22T10:46:50.973Z,33.03
2023-04-22T10:50:13.845Z,31.51
2023-04-22T10:53:35.798Z,32.17
2023-04-22T10:57:10.008Z,32.07
2023-04-22T11:00:21.755Z,32.15
2023-04-22T11:03:29.069Z,32.47
2023-04-22T11:06:32.537Z,31.29
2023-04-22T11:09:40.208Z,31.40
2023-04-22T11:12:45.097Z,31.21
2023-04-22T11:15:54.188Z,32.27
2023-04-22T11:18:57.747Z,31.97
2023-04-22T11:22:00.520Z,31.06
2023-04-22T11:25:04.438Z,30.82
2023-04-22T11:28:07.854Z,30.88
2023-04-22T11:31:10.827Z,32.02
2023-04-22T11:34:13.393Z,30.88
2023-04-22T11:37:19.279Z,30.56
2023-04-22T11:40:31.247Z,32.14
2023-04-22T11:43:35.047Z,30.82
2023-04-22T11:46:40.280Z,29.56
2023-04-22T11:49:59.155Z,31.73
2023-04-22T11:53:12.644Z,30.25
2023-04-22T11:56:15.607Z,29.31
2023-04-22T11:59:18.022Z,29.03
2023-04-22T12:02:23.659Z,29.23
2023-04-22T12:05:52.602Z,29.77
2023-04-22T12:08:56.001Z,28.53
2023-04-22T12:11:59.005Z,26.53
2023-04-22T12:15:13.641Z,26.50
2023-04-22T12:18:16.670Z,25.84
2023-04-22T12:21:21.899Z,24.55
2023-04-22T12:24:28.772Z,24.38
2023-04-22T12:27:32.049Z,24.81
2023-04-22T12:30:36.225Z,24.46
2023-04-22T12:33:38.910Z,23.92
2023-04-22T12:36:41.952Z,24.25
2023-04-22T12:39:45.741Z,23.98
2023-04-22T12:42:48.508Z,24.16
2023-04-22T12:45:51.193Z,24.29
2023-04-22T12:48:53.980Z,23.61
2023-04-22T12:51:56.536Z,23.44
2023-04-22T12:54:59.339Z,23.46
2023-04-22T12:58:02.456Z,23.68
2023-04-22T13:01:05.294Z,23.53
2023-04-22T13:04:07.902Z,23.19
2023-04-22T13:07:11.001Z,22.69
2023-04-22T13:10:17.248Z,22.63
2023-04-22T13:13:20.007Z,23.10
2023-04-22T13:16:22.811Z,22.58
2023-04-22T13:19:27.071Z,22.66
2023-04-22T13:22:29.686Z,22.88
2023-04-22T13:25:32.823Z,22.96
2023-04-22T13:28:35.868Z,22.80
2023-04-22T13:31:38.945Z,22.15
2023-04-22T13:34:41.518Z,22.01
2023-04-22T13:37:44.335Z,21.86
2023-04-22T13:40:46.809Z,21.21
2023-04-22T13:43:54.191Z,21.53
2023-04-22T13:46:56.765Z,21.39
2023-04-22T13:50:00.848Z,21.42
2023-04-22T13:53:04.190Z,21.04
2023-04-22T13:56:07.354Z,21.29
2023-04-22T13:59:09.899Z,21.17
2023-04-22T14:02:12.730Z,20.99
2023-04-22T14:05:15.566Z,21.10
2023-04-22T14:08:18.912Z,21.25
2023-04-22T14:11:21.627Z,21.39
2023-04-22T14:14:24.213Z,21.59
2023-04-22T14:17:27.839Z,21.58
2023-04-22T14:20:30.614Z,21.59
2023-04-22T14:23:33.737Z,21.58
2023-04-22T14:26:36.216Z,21.79
2023-04-22T14:29:39.611Z,21.98
2023-04-22T14:32:42.490Z,21.83
2023-04-22T14:35:45.362Z,21.40
2023-04-22T14:38:47.839Z,21.45
2023-04-22T14:41:50.784Z,21.29
2023-04-22T14:44:53.435Z,21.24
2023-04-22T14:47:57.435Z,20.92
2023-04-22T14:51:02.924Z,21.04
2023-04-22T14:54:06.101Z,20.99
2023-04-22T14:57:08.596Z,21.06
2023-04-22T15:00:12.193Z,21.01
2023-04-22T15:03:15.435Z,20.85
2023-04-22T15:06:18.413Z,20.86
2023-04-22T15:09:20.938Z,20.91
2023-04-22T15:12:23.707Z,20.72
2023-04-22T15:15:26.902Z,20.53
2023-04-22T15:18:29.658Z,20.42
2023-04-22T15:21:32.131Z,20.41
2023-04-22T15:24:35.000Z,20.49
2023-04-22T15:27:38.593Z,20.25
2023-04-22T15:30:41.897Z,20.24
2023-04-22T15:33:44.655Z,20.24
2023-04-22T15:36:47.599Z,20.24
2023-04-22T15:39:50.031Z,20.07
2023-04-22T15:42:52.929Z,20.06
2023-04-22T15:45:57.574Z,20.08
2023-04-22T15:49:00.840Z,19.94
2023-04-22T15:52:04.001Z,20.01
2023-04-22T15:55:07.809Z,19.90
2023-04-22T15:58:10.730Z,19.81
2023-04-22T16:01:19.539Z,19.82
2023-04-22T16:04:23.166Z,19.61
2023-04-22T16:07:26.175Z,19.63
2023-04-22T16:10:29.021Z,19.60
2023-04-22T16:13:31.633Z,19.56
2023-04-22T16:16:34.455Z,19.49
2023-04-22T16:19:37.174Z,19.45
2023-04-22T16:22:39.973Z,19.56
2023-04-22T16:25:42.645Z,19.37
2023-04-22T16:28:46.891Z,19.25
2023-04-22T16:31:49.366Z,19.11
2023-04-22T16:34:52.426Z,19.02
2023-04-22T16:37:54.917Z,18.88
2023-04-22T16:40:57.764Z,18.89
2023-04-22T16:44:01.033Z,18.77
2023-04-22T16:47:03.838Z,18.73
2023-04-22T16:50:06.921Z,18.55
2023-04-22T16:53:11.782Z,18.39
2023-04-22T16:56:14.274Z,18.22
2023-04-22T16:59:17.234Z,18.17
2023-04-22T17:02:19.857Z,18.12
2023-04-22T17:05:22.665Z,18.17
2023-04-22T17:08:25.451Z,17.97
2023-04-22T17:11:32.242Z,17.93
2023-04-22T17:14:34.778Z,17.80
2023-04-22T17:17:37.528Z,17.74
2023-04-22T17:20:40.255Z,17.79
2023-04-22T17:23:43.298Z,17.80
2023-04-22T17:26:45.852Z,17.48
2023-04-22T17:29:48.800Z,17.39
2023-04-22T17:32:51.427Z,17.54
2023-04-22T17:35:54.238Z,17.32
2023-04-22T17:38:56.736Z,17.27
2023-04-22T17:41:59.690Z,17.08
2023-04-22T17:45:02.195Z,16.97
2023-04-22T17:48:05.074Z,16.86
2023-04-22T17:51:08.041Z,16.71
2023-04-22T17:54:10.850Z,16.63
2023-04-22T17:57:13.644Z,16.54
2023-04-22T18:00:18.036Z,16.43
2023-04-22T18:03:21.196Z,16.30
2023-04-22T18:06:23.893Z,16.21
2023-04-22T18:09:27.337Z,16.10
2023-04-22T18:12:30.826Z,15.78
2023-04-22T18:15:33.663Z,15.50
2023-04-22T18:18:36.427Z,15.59
2023-04-22T18:21:46.611Z,15.59
2023-04-22T18:24:55.538Z,15.56
2023-04-22T18:27:58.422Z,15.57
2023-04-22T18:31:00.884Z,15.35
2023-04-22T18:34:04.276Z,15.28
2023-04-22T18:37:07.313Z,15.23
2023-04-22T18:40:10.837Z,15.26
2023-04-22T18:43:13.402Z,15.18
2023-04-22T18:46:16.228Z,15.19
2023-04-22T18:49:18.928Z,15.01
2023-04-22T18:52:21.900Z,15.02
2023-04-22T18:55:24.453Z,15.04
2023-04-22T18:58:27.392Z,15.02
2023-04-22T19:01:29.928Z,15.02
2023-04-22T19:04:32.937Z,14.94
2023-04-22T19:07:35.947Z,14.76
2023-04-22T19:10:38.976Z,14.70
2023-04-22T19:13:41.740Z,14.70
2023-04-22T19:16:44.682Z,14.63
2023-04-22T19:19:47.209Z,14.66
2023-04-22T19:22:50.309Z,14.61
2023-04-22T19:25:53.148Z,14.57
2023-04-22T19:28:55.997Z,14.60
2023-04-22T19:31:59.809Z,14.60
2023-04-22T19:35:04.212Z,14.60
2023-04-22T19:38:07.124Z,14.56
2023-04-22T19:41:11.636Z,14.56
2023-04-22T19:44:14.248Z,14.50
2023-04-22T19:47:17.164Z,14.59
2023-04-22T19:50:19.984Z,14.44
2023-04-22T19:53:23.524Z,14.43
2023-04-22T19:56:26.899Z,14.44
2023-04-22T19:59:31.708Z,14.37
2023-04-22T20:02:35.618Z,14.36
2023-04-22T20:05:38.807Z,14.25
2023-04-22T20:08:42.642Z,14.14
2023-04-22T20:11:46.378Z,14.12
2023-04-22T20:14:49.292Z,14.09
2023-04-22T20:17:52.457Z,14.07
2023-04-22T20:20:57.478Z,14.02
2023-04-22T20:24:04.051Z,14.04
2023-04-22T20:27:07.578Z,14.02
2023-04-22T20:30:11.601Z,13.99
2023-04-22T20:33:16.702Z,13.96
2023-04-22T20:36:22.289Z,13.93
2023-04-22T20:39:24.948Z,13.88
2023-04-22T20:42:28.927Z,13.86
2023-04-22T20:45:32.161Z,13.85
2023-04-22T20:48:34.983Z,13.86
2023-04-22T20:51:37.624Z,13.87
2023-04-22T20:54:41.074Z,13.76
2023-04-22T20:57:43.549Z,13.76
2023-04-22T21:00:46.543Z,13.70
2023-04-22T21:03:52.953Z,13.67
2023-04-22T21:06:56.757Z,13.66
2023-04-22T21:09:59.438Z,13.58
2023-04-22T21:13:02.296Z,13.59
2023-04-22T21:16:08.075Z,13.61
2023-04-22T21:19:12.372Z,13.61
2023-04-22T21:22:19.605Z,13.48
2023-04-22T21:25:23.230Z,13.44
2023-04-22T21:28:26.083Z,13.43
2023-04-22T21:31:29.184Z,13.41
2023-04-22T21:34:31.771Z,13.27
2023-04-22T21:37:34.751Z,13.24
2023-04-22T21:40:37.339Z,13.18
2023-04-22T21:43:40.244Z,13.10
2023-04-22T21:46:42.783Z,13.04
2023-04-22T21:49:47.076Z,12.99
2023-04-22T21:52:49.787Z,12.83
2023-04-22T21:55:52.719Z,12.83
2023-04-22T21:58:55.774Z,12.85
2023-04-22T22:01:58.766Z,12.81
2023-04-22T22:05:02.044Z,12.67
2023-04-22T22:08:04.806Z,12.66
2023-04-22T22:11:12.453Z,12.43
2023-04-22T22:14:19.996Z,12.40
2023-04-22T22:17:22.786Z,12.32
2023-04-22T22:20:26.600Z,12.24
2023-04-22T22:23:29.439Z,12.16
2023-04-22T22:26:31.975Z,12.11
2023-04-22T22:29:34.737Z,12.15
2023-04-22T22:32:37.410Z,12.11
2023-04-22T22:35:40.629Z,12.01
2023-04-22T22:38:43.198Z,11.88
2023-04-22T22:41:46.075Z,11.77
2023-04-22T22:44:48.624Z,11.72
2023-04-22T22:47:51.433Z,11.66
2023-04-22T22:50:54.094Z,11.50
2023-04-22T22:53:56.990Z,11.49
2023-04-22T22:56:59.584Z,11.37
2023-04-22T23:00:02.399Z,11.49
2023-04-22T23:03:05.183Z,11.45
2023-04-22T23:06:08.218Z,11.32
2023-04-22T23:09:11.385Z,11.22
2023-04-22T23:12:14.232Z,11.12
2023-04-22T23:15:16.955Z,11.16
2023-04-22T23:18:19.911Z,11.25
2023-04-22T23:21:23.377Z,11.14
2023-04-22T23:24:26.402Z,11.09
2023-04-22T23:27:28.917Z,11.18
2023-04-22T23:30:32.041Z,11.31
2023-04-22T23:33:36.466Z,11.27
2023-04-22T23:36:39.512Z,11.19
2023-04-22T23:39:42.575Z,11.10
2023-04-22T23:42:46.032Z,11.15
2023-04-22T23:45:48.577Z,11.16
2023-04-22T23:48:51.970Z,11.06
2023-04-22T23:51:54.584Z,11.02
2023-04-22T23:54:57.813Z,10.98
2023-04-22T23:58:00.558Z,11.05
